createdAt,value
2023-06-17T17:44:25.969Z,96434.03
2023-06-17T17:49:28.091Z,96431.69
2023-06-17T17:54:30.241Z,96430.09
2023-06-17T17:59:33.709Z,96440.16
2023-06-17T18:04:35.727Z,96439.13
2023-06-17T18:09:37.764Z,96445.91
2023-06-17T18:14:41.240Z,96441.38
2023-06-17T18:19:44.482Z,96443.75
2023-06-17T18:24:46.540Z,96452.34
2023-06-17T18:29:49.906Z,96445.91
2023-06-17T18:34:51.998Z,96445.16
2023-06-17T18:39:54.174Z,96453.25
2023-06-17T18:44:57.580Z,96453.22
2023-06-17T18:50:01.126Z,96459.81
2023-06-17T18:55:03.975Z,96461.56
2023-06-17T19:00:08.770Z,96458.75
2023-06-17T19:05:10.865Z,96450.84
2023-06-17T19:10:12.896Z,96455.22
2023-06-17T19:15:16.339Z,96465.41
2023-06-17T19:20:18.532Z,96470.28
2023-06-17T19:25:20.676Z,96478.44
2023-06-17T19:30:24.328Z,96482.00
2023-06-17T19:35:27.516Z,96491.13
2023-06-17T19:40:29.913Z,96491.38
2023-06-17T19:45:34.222Z,96497.94
2023-06-17T19:50:36.541Z,96489.84
2023-06-17T19:55:40.821Z,96499.91
2023-06-17T20:00:44.470Z,96501.47
2023-06-17T20:05:47.044Z,96501.19
2023-06-17T20:10:49.244Z,96505.44
2023-06-17T20:15:52.997Z,96496.06
2023-06-17T20:20:55.117Z,96495.78
2023-06-17T20:25:57.226Z,96489.44
2023-06-17T20:31:00.696Z,96499.50
2023-06-17T20:36:03.042Z,96491.66
2023-06-17T20:41:05.111Z,96494.88
2023-06-17T20:46:08.700Z,96499.34
2023-06-17T20:51:11.315Z,96495.50
2023-06-17T20:56:13.307Z,96496.47
2023-06-17T21:01:18.530Z,96504.97
2023-06-17T21:06:21.309Z,96496.38
2023-06-17T21:11:23.340Z,96494.81
2023-06-17T21:16:27.219Z,96498.75
2023-06-17T21:21:29.247Z,96503.78
2023-06-17T21:26:31.285Z,96507.47
2023-06-17T21:31:34.663Z,96510.19
2023-06-17T21:36:36.895Z,96511.91
2023-06-17T21:41:38.895Z,96510.88
2023-06-17T21:46:42.460Z,96507.59
2023-06-17T21:51:44.502Z,96505.09
2023-06-17T21:56:46.551Z,96510.34
2023-06-17T22:01:49.975Z,96504.81
2023-06-17T22:06:52.017Z,96522.13
2023-06-17T22:11:54.075Z,96519.34
2023-06-17T22:16:57.448Z,96525.06
2023-06-17T22:21:59.490Z,96518.78
2023-06-17T22:27:01.558Z,96513.03
2023-06-17T22:32:06.168Z,96509.28
2023-06-17T22:37:08.229Z,96519.09
2023-06-17T22:42:10.369Z,96512.59
2023-06-17T22:47:13.822Z,96505.53
2023-06-17T22:52:15.917Z,96503.81
2023-06-17T22:57:17.940Z,96506.38
2023-06-17T23:02:21.343Z,96507.81
2023-06-17T23:07:23.378Z,96510.81
2023-06-17T23:12:25.589Z,96510.28
2023-06-17T23:17:29.008Z,96512.88
2023-06-17T23:22:34.499Z,96516.34
2023-06-17T23:27:36.981Z,96507.91
2023-06-17T23:32:41.032Z,96506.56
2023-06-17T23:37:43.204Z,96494.69
2023-06-17T23:42:45.217Z,96499.69
2023-06-17T23:47:48.678Z,96490.28
2023-06-17T23:52:50.763Z,96499.84
2023-06-17T23:57:52.793Z,96497.03
